createdAt,value
2022-09-29T00:00:55.006Z,3.50
2022-09-29T00:03:27.816Z,4.22
2022-09-29T00:05:58.297Z,3.55
2022-09-29T00:08:40.775Z,3.22
2022-09-29T00:11:15.165Z,3.15
2022-09-29T00:13:50.889Z,2.35
2022-09-29T00:16:23.027Z,2.10
2022-09-29T00:19:18.335Z,2.92
2022-09-29T00:21:50.526Z,2.42
2022-09-29T00:24:20.402Z,2.15
2022-09-29T00:26:54.436Z,1.80
2022-09-29T00:29:23.677Z,1.48
2022-09-29T00:31:54.333Z,1.23
2022-09-29T00:34:27.249Z,1.50
2022-09-29T00:37:04.684Z,2.05
2022-09-29T00:39:36.834Z,1.48
2022-09-29T00:42:11.304Z,1.55
2022-09-29T00:45:25.143Z,1.30
2022-09-29T00:48:15.234Z,1.17
2022-09-29T00:50:52.446Z,1.58
2022-09-29T00:53:25.034Z,1.15
2022-09-29T00:56:06.126Z,1.67
2022-09-29T00:58:49.150Z,1.33
2022-09-29T01:01:27.390Z,1.00
2022-09-29T01:04:07.159Z,1.13
2022-09-29T01:06:54.763Z,1.17
2022-09-29T01:09:33.699Z,1.55
2022-09-29T01:12:03.687Z,1.75
2022-09-29T01:14:38.503Z,1.75
2022-09-29T01:17:12.311Z,2.00
2022-09-29T01:20:09.504Z,1.73
2022-09-29T01:23:30.135Z,2.95
2022-09-29T01:26:50.725Z,1.75
2022-09-29T01:30:08.216Z,1.90
2022-09-29T01:33:33.398Z,0.60
2022-09-29T01:36:44.466Z,0.50
2022-09-29T01:39:48.557Z,0.90
2022-09-29T01:42:25.374Z,0.47
2022-09-29T01:45:34.251Z,1.20
2022-09-29T01:48:20.406Z,0.98
2022-09-29T01:50:57.161Z,0.63
2022-09-29T01:53:54.284Z,0.32
2022-09-29T01:56:49.758Z,0.60
2022-09-29T01:59:54.276Z,0.40
2022-09-29T02:03:11.292Z,0.40
2022-09-29T02:05:57.906Z,0.40
2022-09-29T02:08:46.213Z,0.40
2022-09-29T02:14:12.953Z,0.63
2022-09-29T02:16:58.920Z,0.40
2022-09-29T02:19:38.153Z,0.47
2022-09-29T02:22:11.131Z,0.30
2022-09-29T02:24:40.456Z,0.40
2022-09-29T02:27:11.533Z,0.77
2022-09-29T02:29:40.788Z,0.40
2022-09-29T02:32:15.191Z,0.50
2022-09-29T02:34:48.221Z,0.40
2022-09-29T02:38:06.423Z,0.38
2022-09-29T02:41:01.063Z,0.30
2022-09-29T02:44:16.953Z,0.50
2022-09-29T02:47:34.448Z,0.40
2022-09-29T02:50:50.565Z,0.40
2022-09-29T02:53:58.466Z,0.40
2022-09-29T02:57:12.766Z,0.50
2022-09-29T03:00:11.990Z,0.40
2022-09-29T03:02:44.420Z,0.30
2022-09-29T03:05:19.319Z,0.57
2022-09-29T03:07:48.645Z,0.88
2022-09-29T03:10:20.284Z,0.40
2022-09-29T03:12:49.449Z,0.40
2022-09-29T03:15:19.274Z,0.40
2022-09-29T03:17:48.401Z,0.90
2022-09-29T03:20:17.628Z,0.30
2022-09-29T03:22:46.845Z,0.30
2022-09-29T03:25:16.522Z,0.65
2022-09-29T03:27:45.676Z,0.40
2022-09-29T03:30:15.703Z,0.52
2022-09-29T03:32:45.908Z,0.40
2022-09-29T03:35:15.162Z,0.60
2022-09-29T03:37:44.192Z,0.60
2022-09-29T03:40:14.408Z,1.38
2022-09-29T03:42:43.589Z,0.43
2022-09-29T03:45:12.679Z,0.77
2022-09-29T03:47:41.799Z,0.30
2022-09-29T03:50:11.312Z,0.20
2022-09-29T03:52:40.415Z,0.68
2022-09-29T03:55:11.410Z,0.50
2022-09-29T03:57:40.479Z,0.30
2022-09-29T04:00:10.689Z,0.30
2022-09-29T04:02:39.867Z,0.30
2022-09-29T04:05:09.357Z,0.30
2022-09-29T04:07:38.672Z,0.30
2022-09-29T04:10:08.437Z,0.30
2022-09-29T04:12:37.507Z,0.40
2022-09-29T04:15:07.655Z,0.50
2022-09-29T04:17:36.844Z,0.38
2022-09-29T04:20:06.610Z,0.70
2022-09-29T04:22:35.783Z,0.30
2022-09-29T04:25:05.148Z,0.38
2022-09-29T04:27:34.289Z,0.40
2022-09-29T04:30:03.586Z,0.95
2022-09-29T04:32:32.787Z,0.47
2022-09-29T04:35:01.859Z,0.30
2022-09-29T04:37:32.456Z,0.40
2022-09-29T04:40:01.742Z,1.50
2022-09-29T04:42:30.929Z,0.40
2022-09-29T04:45:00.400Z,0.35
2022-09-29T04:47:29.437Z,0.52
2022-09-29T04:49:58.600Z,0.35
2022-09-29T04:52:27.832Z,0.30
2022-09-29T04:54:57.739Z,0.35
2022-09-29T04:57:26.932Z,0.30
2022-09-29T04:59:57.109Z,0.20
2022-09-29T05:02:26.339Z,0.40
2022-09-29T05:04:55.589Z,0.40
2022-09-29T05:07:24.686Z,0.20
2022-09-29T05:09:53.870Z,0.40
2022-09-29T05:12:23.008Z,0.30
2022-09-29T05:14:52.145Z,0.50
2022-09-29T05:17:21.599Z,0.40
2022-09-29T05:19:50.797Z,0.30
2022-09-29T05:22:25.373Z,0.20
2022-09-29T05:24:55.204Z,0.40
2022-09-29T05:27:24.581Z,0.30
2022-09-29T05:29:53.717Z,0.20
2022-09-29T05:32:22.762Z,0.22
2022-09-29T05:34:51.819Z,0.45
2022-09-29T05:37:21.127Z,0.63
2022-09-29T05:39:50.235Z,0.35
2022-09-29T05:42:19.623Z,0.40
2022-09-29T05:44:48.667Z,0.47
2022-09-29T05:47:17.872Z,0.60
2022-09-29T05:49:47.011Z,0.25
2022-09-29T05:52:16.083Z,0.20
2022-09-29T05:54:45.383Z,0.30
2022-09-29T05:57:14.450Z,0.25
2022-09-29T05:59:43.515Z,0.30
2022-09-29T06:02:12.712Z,0.60
2022-09-29T06:04:41.856Z,0.32
2022-09-29T06:07:11.122Z,0.30
2022-09-29T06:09:40.473Z,0.80
2022-09-29T06:12:09.541Z,0.20
2022-09-29T06:14:38.810Z,0.22
2022-09-29T06:17:07.989Z,0.32
2022-09-29T06:19:38.951Z,0.30
2022-09-29T06:22:09.802Z,0.20
2022-09-29T06:24:39.112Z,0.20
2022-09-29T06:27:08.176Z,1.48
2022-09-29T06:29:37.310Z,0.40
2022-09-29T06:32:06.692Z,0.20
2022-09-29T06:34:35.751Z,0.20
2022-09-29T06:37:17.408Z,0.40
2022-09-29T06:39:46.560Z,0.50
2022-09-29T06:42:16.464Z,0.30
2022-09-29T06:44:48.354Z,0.30
2022-09-29T06:47:17.499Z,0.30
2022-09-29T06:49:50.888Z,0.30
2022-09-29T06:52:31.514Z,0.20
2022-09-29T06:55:03.965Z,0.25
2022-09-29T06:57:34.599Z,0.30
2022-09-29T07:02:39.530Z,0.57
2022-09-29T07:05:10.691Z,0.30
2022-09-29T07:07:43.230Z,0.30
2022-09-29T07:10:12.396Z,0.20
2022-09-29T07:12:42.030Z,0.30
2022-09-29T07:15:12.610Z,0.35
2022-09-29T07:17:45.629Z,1.27
2022-09-29T07:20:16.990Z,0.68
2022-09-29T07:22:53.448Z,0.57
2022-09-29T07:25:47.309Z,0.45
2022-09-29T07:28:14.493Z,0.57
2022-09-29T07:30:43.654Z,0.30
2022-09-29T07:33:15.784Z,0.40
2022-09-29T07:35:46.688Z,0.30
2022-09-29T07:38:16.369Z,0.30
2022-09-29T07:40:46.376Z,0.30
2022-09-29T07:43:15.829Z,0.30
2022-09-29T07:45:54.704Z,0.20
2022-09-29T07:48:27.902Z,0.30
2022-09-29T07:51:11.616Z,0.22
2022-09-29T07:53:41.704Z,0.20
2022-09-29T07:56:23.646Z,0.20
2022-09-29T07:58:54.745Z,0.35
2022-09-29T08:01:25.355Z,0.35
2022-09-29T08:04:04.373Z,0.20
2022-09-29T08:06:34.155Z,0.30
2022-09-29T08:09:05.576Z,0.30
2022-09-29T08:11:42.378Z,0.40
2022-09-29T08:14:13.475Z,0.30
2022-09-29T08:16:42.647Z,0.30
2022-09-29T08:19:11.774Z,0.20
2022-09-29T08:24:26.704Z,0.30
2022-09-29T08:27:10.702Z,0.40
2022-09-29T08:29:47.968Z,0.40
2022-09-29T08:32:18.839Z,0.30
2022-09-29T08:34:48.101Z,0.20
2022-09-29T08:37:17.864Z,0.30
2022-09-29T08:39:47.059Z,0.30
2022-09-29T08:42:51.726Z,0.40
2022-09-29T08:45:34.808Z,0.30
2022-09-29T08:48:23.512Z,0.20
2022-09-29T08:51:07.086Z,0.20
2022-09-29T08:53:55.082Z,0.20
2022-09-29T08:56:31.271Z,0.20
2022-09-29T08:59:00.419Z,0.30
2022-09-29T09:02:07.071Z,0.20
2022-09-29T09:05:16.918Z,0.30
2022-09-29T09:08:38.389Z,0.20
2022-09-29T09:11:48.813Z,0.28
2022-09-29T09:15:01.862Z,0.30
2022-09-29T09:18:12.581Z,0.20
2022-09-29T09:21:15.166Z,0.20
2022-09-29T09:24:00.753Z,0.38
2022-09-29T09:26:48.327Z,0.30
2022-09-29T09:29:40.857Z,0.60
2022-09-29T09:32:17.590Z,0.30
2022-09-29T09:35:22.696Z,0.35
2022-09-29T09:37:59.351Z,0.40
2022-09-29T09:40:46.884Z,0.43
2022-09-29T09:43:45.959Z,0.43
2022-09-29T09:46:49.564Z,0.57
2022-09-29T09:49:44.597Z,0.30
2022-09-29T09:52:30.667Z,0.50
2022-09-29T09:55:07.918Z,0.50
2022-09-29T09:58:14.098Z,0.52
2022-09-29T10:01:01.607Z,0.55
2022-09-29T10:03:31.832Z,1.30
2022-09-29T10:06:01.673Z,1.00
2022-09-29T10:08:40.419Z,0.38
2022-09-29T10:11:34.298Z,0.40
2022-09-29T10:14:29.269Z,0.30
2022-09-29T10:17:08.237Z,0.30
2022-09-29T10:20:02.634Z,0.30
2022-09-29T10:22:33.912Z,0.50
2022-09-29T10:25:22.243Z,0.30
2022-09-29T10:30:37.259Z,0.20
2022-09-29T10:33:16.824Z,0.38
2022-09-29T10:35:49.625Z,0.30
2022-09-29T10:38:29.469Z,0.30
2022-09-29T10:41:10.407Z,0.25
2022-09-29T10:43:46.051Z,0.40
2022-09-29T10:46:57.134Z,0.40
2022-09-29T10:49:30.165Z,0.30
2022-09-29T10:52:07.707Z,0.40
2022-09-29T10:54:42.043Z,0.40
2022-09-29T10:57:24.749Z,0.50
2022-09-29T10:59:57.296Z,0.20
2022-09-29T11:02:40.105Z,0.25
2022-09-29T11:05:26.117Z,0.47
2022-09-29T11:07:55.851Z,0.40
2022-09-29T11:10:39.779Z,0.47
2022-09-29T11:13:43.512Z,1.02
2022-09-29T11:16:37.928Z,0.43
2022-09-29T11:19:15.785Z,0.70
2022-09-29T11:22:30.018Z,0.70
2022-09-29T11:25:45.099Z,0.32
2022-09-29T11:28:40.944Z,0.40
2022-09-29T11:31:58.724Z,0.60
2022-09-29T11:35:07.023Z,0.57
2022-09-29T11:38:17.520Z,0.93
2022-09-29T11:41:36.060Z,0.80
2022-09-29T11:44:44.186Z,0.75
2022-09-29T11:50:54.321Z,0.85
2022-09-29T11:54:09.075Z,0.90
2022-09-29T11:57:05.397Z,0.70
2022-09-29T12:00:18.570Z,0.77
2022-09-29T12:03:24.407Z,0.88
2022-09-29T12:06:39.302Z,1.20
2022-09-29T12:09:45.051Z,0.80
2022-09-29T12:12:38.917Z,0.70
2022-09-29T12:15:49.718Z,0.50
2022-09-29T12:18:38.227Z,1.85
2022-09-29T12:21:14.180Z,1.30
2022-09-29T12:23:48.942Z,1.10
2022-09-29T12:26:24.694Z,1.15
2022-09-29T12:29:13.830Z,1.08
2022-09-29T12:31:52.739Z,0.50
2022-09-29T12:34:47.076Z,1.20
2022-09-29T12:37:42.864Z,0.52
2022-09-29T12:40:34.235Z,1.08
2022-09-29T12:43:49.066Z,0.60
2022-09-29T12:46:43.486Z,0.70
2022-09-29T12:49:40.996Z,0.77
2022-09-29T12:52:30.440Z,0.85
2022-09-29T12:55:06.143Z,0.82
2022-09-29T12:57:42.916Z,0.60
2022-09-29T13:00:22.066Z,0.90
2022-09-29T13:03:35.367Z,1.27
2022-09-29T13:06:57.566Z,0.90
2022-09-29T13:10:25.549Z,1.10
2022-09-29T13:13:31.306Z,0.95
2022-09-29T13:16:40.150Z,0.88
2022-09-29T13:19:57.308Z,0.95
2022-09-29T13:23:14.444Z,0.47
2022-09-29T13:26:27.701Z,1.48
2022-09-29T13:29:04.226Z,1.05
2022-09-29T13:34:38.840Z,1.10
2022-09-29T13:37:22.163Z,0.73
2022-09-29T13:40:15.463Z,1.73
2022-09-29T13:42:56.584Z,0.68
2022-09-29T13:45:45.605Z,0.90
2022-09-29T13:48:38.111Z,0.80
2022-09-29T13:51:43.274Z,0.60
2022-09-29T13:54:40.945Z,0.88
2022-09-29T13:57:27.896Z,0.60
2022-09-29T14:00:21.076Z,0.90
2022-09-29T14:03:11.350Z,0.73
2022-09-29T14:05:47.681Z,0.65
2022-09-29T14:08:26.615Z,0.50
2022-09-29T14:11:24.496Z,0.40
2022-09-29T14:14:39.167Z,0.40
2022-09-29T14:17:34.772Z,0.45
2022-09-29T14:20:34.696Z,0.32
2022-09-29T14:23:08.767Z,0.30
2022-09-29T14:25:58.241Z,0.40
2022-09-29T14:28:47.518Z,0.30
2022-09-29T14:31:24.168Z,0.63
2022-09-29T14:33:55.786Z,0.40
2022-09-29T14:36:29.341Z,0.30
2022-09-29T14:41:52.604Z,0.20
2022-09-29T14:44:51.299Z,0.30
2022-09-29T14:48:15.789Z,0.40
2022-09-29T14:51:25.933Z,0.70
2022-09-29T14:54:47.432Z,0.40
2022-09-29T14:58:01.683Z,0.40
2022-09-29T15:01:18.254Z,0.50
2022-09-29T15:03:54.259Z,0.30
2022-09-29T15:06:30.669Z,0.50
2022-09-29T15:09:25.497Z,0.30
2022-09-29T15:12:03.372Z,0.47
2022-09-29T15:14:40.920Z,0.40
2022-09-29T15:17:52.558Z,0.40
2022-09-29T15:20:56.590Z,0.40
2022-09-29T15:23:59.918Z,0.30
2022-09-29T15:26:34.487Z,0.50
2022-09-29T15:29:08.576Z,0.70
2022-09-29T15:31:38.560Z,0.40
2022-09-29T15:34:18.815Z,0.40
2022-09-29T15:36:54.433Z,0.50
2022-09-29T15:39:53.988Z,0.40
2022-09-29T15:42:30.933Z,0.40
2022-09-29T15:45:20.726Z,0.50
2022-09-29T15:48:00.496Z,0.70
2022-09-29T15:50:40.755Z,0.35
2022-09-29T15:53:12.985Z,0.30
2022-09-29T15:55:42.652Z,0.40
2022-09-29T15:58:40.774Z,0.35
2022-09-29T16:01:18.494Z,0.40
2022-09-29T16:04:02.747Z,0.65
2022-09-29T16:06:40.764Z,0.30
2022-09-29T16:09:21.953Z,0.30
2022-09-29T16:11:51.299Z,0.30
2022-09-29T16:14:26.316Z,0.57
2022-09-29T16:16:57.507Z,0.30
2022-09-29T16:19:33.151Z,0.45
2022-09-29T16:22:08.740Z,0.30
2022-09-29T16:24:57.039Z,0.32
2022-09-29T16:30:44.281Z,0.73
2022-09-29T16:33:24.437Z,0.40
2022-09-29T16:36:15.625Z,0.40
2022-09-29T16:38:49.725Z,0.35
2022-09-29T16:41:38.875Z,0.60
2022-09-29T16:44:35.347Z,0.40
2022-09-29T16:47:30.711Z,0.43
2022-09-29T16:50:06.194Z,0.73
2022-09-29T16:52:52.656Z,0.43
2022-09-29T16:55:30.265Z,0.50
2022-09-29T16:58:13.304Z,0.60
2022-09-29T17:00:42.976Z,0.55
2022-09-29T17:03:13.225Z,0.30
2022-09-29T17:05:48.570Z,0.40
2022-09-29T17:08:26.403Z,0.50
2022-09-29T17:10:58.164Z,0.52
2022-09-29T17:13:36.754Z,0.38
2022-09-29T17:16:12.664Z,0.45
2022-09-29T17:18:42.037Z,0.73
2022-09-29T17:21:12.865Z,0.50
2022-09-29T17:23:42.089Z,0.60
2022-09-29T17:26:47.475Z,0.60
2022-09-29T17:29:16.500Z,0.43
2022-09-29T17:31:45.823Z,0.63
2022-09-29T17:34:15.134Z,0.40
2022-09-29T17:36:44.888Z,0.50
2022-09-29T17:39:14.012Z,0.22
2022-09-29T17:41:45.956Z,0.55
2022-09-29T17:44:15.770Z,0.93
2022-09-29T17:46:45.417Z,0.40
2022-09-29T17:49:19.583Z,0.60
2022-09-29T17:51:48.676Z,0.40
2022-09-29T17:54:18.957Z,0.60
2022-09-29T17:56:48.225Z,0.65
2022-09-29T17:59:18.122Z,0.40
2022-09-29T18:01:47.294Z,0.60
2022-09-29T18:04:21.712Z,0.50
2022-09-29T18:06:55.805Z,0.55
2022-09-29T18:09:27.718Z,0.85
2022-09-29T18:11:56.728Z,0.40
2022-09-29T18:14:25.844Z,0.40
2022-09-29T18:16:56.433Z,0.68
2022-09-29T18:19:26.934Z,0.47
2022-09-29T18:21:58.338Z,0.40
2022-09-29T18:24:27.546Z,0.30
2022-09-29T18:26:56.678Z,0.25
2022-09-29T18:29:26.148Z,0.40
2022-09-29T18:31:55.514Z,0.40
2022-09-29T18:34:24.677Z,0.30
2022-09-29T18:36:53.822Z,0.30
2022-09-29T18:39:23.014Z,0.35
2022-09-29T18:41:52.131Z,0.40
2022-09-29T18:44:25.537Z,0.50
2022-09-29T18:46:54.722Z,0.40
2022-09-29T18:49:25.340Z,0.40
2022-09-29T18:51:59.530Z,0.25
2022-09-29T18:54:29.016Z,0.22
2022-09-29T18:56:58.744Z,0.30
2022-09-29T18:59:27.837Z,0.30
2022-09-29T19:02:00.177Z,0.40
2022-09-29T19:04:30.992Z,0.43
2022-09-29T19:07:00.099Z,0.40
2022-09-29T19:09:29.443Z,0.30
2022-09-29T19:11:58.542Z,0.30
2022-09-29T19:14:27.825Z,0.30
2022-09-29T19:16:56.993Z,0.20
2022-09-29T19:19:26.182Z,0.30
2022-09-29T19:21:55.336Z,0.20
2022-09-29T19:24:25.265Z,0.30
2022-09-29T19:26:54.719Z,0.30
2022-09-29T19:29:23.769Z,0.28
2022-09-29T19:31:52.811Z,0.50
2022-09-29T19:34:21.926Z,0.30
2022-09-29T19:36:51.066Z,0.50
2022-09-29T19:39:20.917Z,0.35
2022-09-29T19:41:50.252Z,0.40
2022-09-29T19:44:21.751Z,0.40
2022-09-29T19:46:51.611Z,0.45
2022-09-29T19:49:21.075Z,0.73
2022-09-29T19:51:59.870Z,0.65
2022-09-29T19:54:35.266Z,0.40
2022-09-29T19:57:12.184Z,0.47
2022-09-29T19:59:44.870Z,0.40
2022-09-29T20:02:15.922Z,0.30
2022-09-29T20:04:45.587Z,0.50
2022-09-29T20:07:14.814Z,0.50
2022-09-29T20:09:44.184Z,0.70
2022-09-29T20:12:18.504Z,0.70
2022-09-29T20:14:48.454Z,0.80
2022-09-29T20:17:17.878Z,0.90
2022-09-29T20:19:51.331Z,1.70
2022-09-29T20:22:21.224Z,2.20
2022-09-29T20:24:50.400Z,3.10
2022-09-29T20:27:19.613Z,3.60
2022-09-29T20:29:49.447Z,4.07
2022-09-29T20:32:20.508Z,4.82
2022-09-29T20:34:49.788Z,4.85
2022-09-29T20:37:18.878Z,5.05
2022-09-29T20:39:51.028Z,6.25
2022-09-29T20:42:20.783Z,6.45
2022-09-29T20:44:55.823Z,6.80
2022-09-29T20:47:25.974Z,6.68
2022-09-29T20:49:57.278Z,7.18
2022-09-29T20:52:26.905Z,7.80
2022-09-29T20:55:01.755Z,7.90
2022-09-29T20:57:30.952Z,7.93
2022-09-29T21:00:00.082Z,8.35
2022-09-29T21:02:30.453Z,7.00
2022-09-29T21:04:59.699Z,8.43
2022-09-29T21:07:39.146Z,7.60
2022-09-29T21:10:09.554Z,6.72
2022-09-29T21:12:39.716Z,6.47
2022-09-29T21:15:09.428Z,5.50
2022-09-29T21:17:38.605Z,5.50
2022-09-29T21:20:08.585Z,5.43
2022-09-29T21:22:38.267Z,4.40
2022-09-29T21:25:07.925Z,4.65
2022-09-29T21:27:40.900Z,4.80
2022-09-29T21:30:11.356Z,4.53
2022-09-29T21:32:41.118Z,5.07
2022-09-29T21:35:11.142Z,5.18
2022-09-29T21:37:40.409Z,6.00
2022-09-29T21:40:10.484Z,5.25
2022-09-29T21:42:39.722Z,5.07
2022-09-29T21:45:11.216Z,4.30
2022-09-29T21:47:52.572Z,5.10
2022-09-29T21:50:21.819Z,4.60
2022-09-29T21:52:50.903Z,4.55
2022-09-29T21:55:20.195Z,4.75
2022-09-29T21:57:49.501Z,4.93
2022-09-29T22:00:19.380Z,5.00
2022-09-29T22:02:48.607Z,5.15
2022-09-29T22:05:17.923Z,5.22
2022-09-29T22:07:48.644Z,4.88
2022-09-29T22:10:18.179Z,4.90
2022-09-29T22:12:47.411Z,5.30
2022-09-29T22:15:16.696Z,5.05
2022-09-29T22:17:46.039Z,5.35
2022-09-29T22:20:15.355Z,6.00
2022-09-29T22:22:44.539Z,5.80
2022-09-29T22:25:13.746Z,6.15
2022-09-29T22:27:42.959Z,8.50
2022-09-29T22:30:12.845Z,6.32
2022-09-29T22:32:41.984Z,6.60
2022-09-29T22:35:11.395Z,6.25
2022-09-29T22:37:40.767Z,6.47
2022-09-29T22:40:11.141Z,6.32
2022-09-29T22:42:40.439Z,5.80
2022-09-29T22:45:11.324Z,6.53
2022-09-29T22:47:40.682Z,6.95
2022-09-29T22:50:10.404Z,7.10
2022-09-29T22:52:39.704Z,7.20
2022-09-29T22:55:09.419Z,6.63
2022-09-29T22:57:38.676Z,8.60
2022-09-29T23:00:08.744Z,8.70
2022-09-29T23:02:37.978Z,7.80
2022-09-29T23:05:07.878Z,7.43
2022-09-29T23:07:37.350Z,8.00
2022-09-29T23:10:07.586Z,7.88
2022-09-29T23:12:36.870Z,8.73
2022-09-29T23:15:06.677Z,9.27
2022-09-29T23:17:36.052Z,7.82
2022-09-29T23:20:09.991Z,9.00
2022-09-29T23:22:39.185Z,8.15
2022-09-29T23:25:09.128Z,9.77
2022-09-29T23:27:38.697Z,8.68
2022-09-29T23:30:08.507Z,9.32
2022-09-29T23:32:37.682Z,9.73
2022-09-29T23:35:07.455Z,9.88
2022-09-29T23:37:48.782Z,9.77
2022-09-29T23:40:18.165Z,11.05
2022-09-29T23:42:47.442Z,9.50
2022-09-29T23:45:16.679Z,8.10
2022-09-29T23:47:47.192Z,7.90
2022-09-29T23:50:18.282Z,8.52
2022-09-29T23:52:47.484Z,7.78
2022-09-29T23:55:17.993Z,8.10
2022-09-29T23:57:47.148Z,8.00
